sensor_id;sensor_type;location;lat;lon;timestamp;temperature;humidity
210;DHT22;90;48.810;9.120;2023-02-28T00:00:51;0.00;62.10
210;DHT22;90;48.810;9.120;2023-02-28T00:03:18;0.00;62.30
210;DHT22;90;48.810;9.120;2023-02-28T00:05:45;0.10;62.40
210;DHT22;90;48.810;9.120;2023-02-28T00:08:12;0.10;62.10
210;DHT22;90;48.810;9.120;2023-02-28T00:10:41;0.10;62.00
210;DHT22;90;48.810;9.120;2023-02-28T00:13:08;0.10;61.90
210;DHT22;90;48.810;9.120;2023-02-28T00:15:35;0.10;62.20
210;DHT22;90;48.810;9.120;2023-02-28T00:18:02;0.00;62.30
210;DHT22;90;48.810;9.120;2023-02-28T00:20:29;0.00;62.30
210;DHT22;90;48.810;9.120;2023-02-28T00:22:56;0.00;62.30
210;DHT22;90;48.810;9.120;2023-02-28T00:25:24;0.10;62.30
210;DHT22;90;48.810;9.120;2023-02-28T00:27:53;0.00;62.20
210;DHT22;90;48.810;9.120;2023-02-28T00:30:21;-0.10;62.70
210;DHT22;90;48.810;9.120;2023-02-28T00:32:49;0.00;62.80
210;DHT22;90;48.810;9.120;2023-02-28T00:35:17;-0.10;62.90
210;DHT22;90;48.810;9.120;2023-02-28T00:37:44;-0.10;63.50
210;DHT22;90;48.810;9.120;2023-02-28T00:40:11;0.00;63.40
210;DHT22;90;48.810;9.120;2023-02-28T00:42:38;-0.10;63.40
210;DHT22;90;48.810;9.120;2023-02-28T00:45:07;-0.10;63.70
210;DHT22;90;48.810;9.120;2023-02-28T00:47:35;-0.10;63.80
210;DHT22;90;48.810;9.120;2023-02-28T00:50:02;0.00;63.70
210;DHT22;90;48.810;9.120;2023-02-28T00:52:29;0.10;63.50
210;DHT22;90;48.810;9.120;2023-02-28T00:54:57;0.10;63.40
210;DHT22;90;48.810;9.120;2023-02-28T00:57:23;0.10;63.50
210;DHT22;90;48.810;9.120;2023-02-28T00:59:51;0.10;63.70
210;DHT22;90;48.810;9.120;2023-02-28T01:02:21;0.00;64.50
210;DHT22;90;48.810;9.120;2023-02-28T01:04:49;0.10;64.10
210;DHT22;90;48.810;9.120;2023-02-28T01:07:16;0.00;64.40
210;DHT22;90;48.810;9.120;2023-02-28T01:09:42;0.00;65.00
210;DHT22;90;48.810;9.120;2023-02-28T01:12:09;-0.10;65.10
210;DHT22;90;48.810;9.120;2023-02-28T01:14:37;-0.10;65.30
210;DHT22;90;48.810;9.120;2023-02-28T01:17:04;-0.10;65.50
210;DHT22;90;48.810;9.120;2023-02-28T01:19:32;-0.10;65.70
210;DHT22;90;48.810;9.120;2023-02-28T01:22:01;-0.10;66.00
210;DHT22;90;48.810;9.120;2023-02-28T01:24:28;-0.10;66.20
210;DHT22;90;48.810;9.120;2023-02-28T01:26:55;-0.10;66.10
210;DHT22;90;48.810;9.120;2023-02-28T01:29:22;-0.10;66.20
210;DHT22;90;48.810;9.120;2023-02-28T01:31:49;-0.10;66.70
210;DHT22;90;48.810;9.120;2023-02-28T01:34:16;-0.10;66.90
210;DHT22;90;48.810;9.120;2023-02-28T01:36:46;-0.10;66.80
210;DHT22;90;48.810;9.120;2023-02-28T01:39:13;-0.10;66.80
210;DHT22;90;48.810;9.120;2023-02-28T01:41:40;-0.20;67.00
210;DHT22;90;48.810;9.120;2023-02-28T01:46:50;-0.20;67.70
210;DHT22;90;48.810;9.120;2023-02-28T01:49:17;-0.10;67.60
210;DHT22;90;48.810;9.120;2023-02-28T01:51:49;-0.10;67.70
210;DHT22;90;48.810;9.120;2023-02-28T01:54:19;-0.20;67.80
210;DHT22;90;48.810;9.120;2023-02-28T01:56:50;-0.20;68.20
210;DHT22;90;48.810;9.120;2023-02-28T01:59:22;-0.20;68.20
210;DHT22;90;48.810;9.120;2023-02-28T02:01:51;-0.10;68.10
210;DHT22;90;48.810;9.120;2023-02-28T02:04:20;-0.20;68.10
210;DHT22;90;48.810;9.120;2023-02-28T02:06:50;-0.20;68.30
210;DHT22;90;48.810;9.120;2023-02-28T02:09:17;-0.20;68.40
210;DHT22;90;48.810;9.120;2023-02-28T02:11:45;-0.20;68.30
210;DHT22;90;48.810;9.120;2023-02-28T02:14:30;-0.20;68.90
210;DHT22;90;48.810;9.120;2023-02-28T02:17:16;-0.20;68.90
210;DHT22;90;48.810;9.120;2023-02-28T02:23:14;-0.20;69.00
210;DHT22;90;48.810;9.120;2023-02-28T02:25:50;-0.30;69.50
210;DHT22;90;48.810;9.120;2023-02-28T02:31:47;-0.20;69.60
210;DHT22;90;48.810;9.120;2023-02-28T02:34:41;-0.20;69.80
210;DHT22;90;48.810;9.120;2023-02-28T02:37:16;-0.20;69.90
210;DHT22;90;48.810;9.120;2023-02-28T02:39:49;-0.20;69.80
210;DHT22;90;48.810;9.120;2023-02-28T02:42:23;-0.20;70.10
210;DHT22;90;48.810;9.120;2023-02-28T02:44:57;-0.20;70.10
210;DHT22;90;48.810;9.120;2023-02-28T02:47:27;-0.20;70.10
210;DHT22;90;48.810;9.120;2023-02-28T02:50:01;-0.20;70.30
210;DHT22;90;48.810;9.120;2023-02-28T02:52:34;-0.20;70.40
210;DHT22;90;48.810;9.120;2023-02-28T02:55:02;-0.20;70.60
210;DHT22;90;48.810;9.120;2023-02-28T02:57:33;-0.30;71.00
210;DHT22;90;48.810;9.120;2023-02-28T03:00:03;-0.30;71.30
210;DHT22;90;48.810;9.120;2023-02-28T03:02:32;-0.20;71.10
210;DHT22;90;48.810;9.120;2023-02-28T03:05:05;-0.20;71.10
210;DHT22;90;48.810;9.120;2023-02-28T03:07:35;-0.20;71.30
210;DHT22;90;48.810;9.120;2023-02-28T03:10:02;-0.30;71.60
210;DHT22;90;48.810;9.120;2023-02-28T03:12:40;-0.30;71.90
210;DHT22;90;48.810;9.120;2023-02-28T03:15:13;-0.30;72.10
210;DHT22;90;48.810;9.120;2023-02-28T03:18:01;-0.30;72.60
210;DHT22;90;48.810;9.120;2023-02-28T03:20:39;-0.40;72.80
210;DHT22;90;48.810;9.120;2023-02-28T03:23:13;-0.40;73.00
210;DHT22;90;48.810;9.120;2023-02-28T03:25:54;-0.40;73.30
210;DHT22;90;48.810;9.120;2023-02-28T03:28:43;-0.50;73.80
210;DHT22;90;48.810;9.120;2023-02-28T03:31:16;-0.40;73.80
210;DHT22;90;48.810;9.120;2023-02-28T03:33:47;-0.40;73.50
210;DHT22;90;48.810;9.120;2023-02-28T03:36:24;-0.30;73.60
210;DHT22;90;48.810;9.120;2023-02-28T03:38:56;-0.30;73.60
210;DHT22;90;48.810;9.120;2023-02-28T03:41:27;-0.30;73.60
210;DHT22;90;48.810;9.120;2023-02-28T03:43:59;-0.40;74.00
210;DHT22;90;48.810;9.120;2023-02-28T03:46:33;-0.30;74.30
210;DHT22;90;48.810;9.120;2023-02-28T03:49:06;-0.30;73.80
210;DHT22;90;48.810;9.120;2023-02-28T03:51:36;-0.30;74.00
210;DHT22;90;48.810;9.120;2023-02-28T03:54:07;-0.30;74.00
210;DHT22;90;48.810;9.120;2023-02-28T03:56:39;-0.30;74.10
210;DHT22;90;48.810;9.120;2023-02-28T03:59:13;-0.30;74.40
210;DHT22;90;48.810;9.120;2023-02-28T04:01:44;-0.40;74.40
210;DHT22;90;48.810;9.120;2023-02-28T04:04:12;-0.30;74.50
210;DHT22;90;48.810;9.120;2023-02-28T04:06:42;-0.30;74.20
210;DHT22;90;48.810;9.120;2023-02-28T04:09:11;-0.30;74.20
210;DHT22;90;48.810;9.120;2023-02-28T04:11:39;-0.20;74.10
210;DHT22;90;48.810;9.120;2023-02-28T04:14:08;-0.20;74.10
210;DHT22;90;48.810;9.120;2023-02-28T04:16:37;-0.20;74.10
210;DHT22;90;48.810;9.120;2023-02-28T04:19:06;-0.20;74.30
210;DHT22;90;48.810;9.120;2023-02-28T04:21:35;-0.20;74.40
210;DHT22;90;48.810;9.120;2023-02-28T04:24:04;-0.30;74.70
210;DHT22;90;48.810;9.120;2023-02-28T04:26:32;-0.30;74.80
210;DHT22;90;48.810;9.120;2023-02-28T04:29:00;-0.20;74.90
210;DHT22;90;48.810;9.120;2023-02-28T04:31:27;-0.20;74.40
210;DHT22;90;48.810;9.120;2023-02-28T04:33:54;-0.20;74.40
210;DHT22;90;48.810;9.120;2023-02-28T04:36:21;-0.30;75.00
210;DHT22;90;48.810;9.120;2023-02-28T04:38:49;-0.30;75.40
210;DHT22;90;48.810;9.120;2023-02-28T04:41:18;-0.40;75.50
210;DHT22;90;48.810;9.120;2023-02-28T04:43:45;-0.30;75.40
210;DHT22;90;48.810;9.120;2023-02-28T04:46:12;-0.30;75.10
210;DHT22;90;48.810;9.120;2023-02-28T04:48:39;-0.30;75.30
210;DHT22;90;48.810;9.120;2023-02-28T04:51:09;-0.30;75.30
210;DHT22;90;48.810;9.120;2023-02-28T04:53:37;-0.40;75.50
210;DHT22;90;48.810;9.120;2023-02-28T04:56:05;-0.30;76.00
210;DHT22;90;48.810;9.120;2023-02-28T04:58:34;-0.20;75.40
210;DHT22;90;48.810;9.120;2023-02-28T05:01:02;-0.20;74.80
210;DHT22;90;48.810;9.120;2023-02-28T05:03:29;-0.20;74.90
210;DHT22;90;48.810;9.120;2023-02-28T05:05:57;-0.20;74.80
210;DHT22;90;48.810;9.120;2023-02-28T05:08:24;-0.20;74.70
210;DHT22;90;48.810;9.120;2023-02-28T05:10:51;-0.20;74.90
210;DHT22;90;48.810;9.120;2023-02-28T05:13:18;-0.30;75.30
210;DHT22;90;48.810;9.120;2023-02-28T05:15:46;-0.30;75.60
210;DHT22;90;48.810;9.120;2023-02-28T05:18:13;-0.30;75.70
210;DHT22;90;48.810;9.120;2023-02-28T05:20:40;-0.30;75.60
210;DHT22;90;48.810;9.120;2023-02-28T05:23:08;-0.30;75.40
210;DHT22;90;48.810;9.120;2023-02-28T05:25:36;-0.30;75.50
210;DHT22;90;48.810;9.120;2023-02-28T05:28:04;-0.20;75.10
210;DHT22;90;48.810;9.120;2023-02-28T05:30:31;-0.40;75.80
210;DHT22;90;48.810;9.120;2023-02-28T05:33:00;-0.40;76.00
210;DHT22;90;48.810;9.120;2023-02-28T05:35:27;-0.30;76.00
210;DHT22;90;48.810;9.120;2023-02-28T05:37:54;-0.30;75.90
210;DHT22;90;48.810;9.120;2023-02-28T05:40:21;-0.30;75.60
210;DHT22;90;48.810;9.120;2023-02-28T05:42:50;-0.30;75.70
210;DHT22;90;48.810;9.120;2023-02-28T05:45:17;-0.30;76.10
210;DHT22;90;48.810;9.120;2023-02-28T05:47:44;-0.30;75.80
210;DHT22;90;48.810;9.120;2023-02-28T05:50:12;-0.20;75.70
210;DHT22;90;48.810;9.120;2023-02-28T05:52:39;-0.20;75.70
210;DHT22;90;48.810;9.120;2023-02-28T05:55:07;-0.30;75.70
210;DHT22;90;48.810;9.120;2023-02-28T05:57:34;-0.30;75.80
210;DHT22;90;48.810;9.120;2023-02-28T06:00:01;-0.30;75.90
210;DHT22;90;48.810;9.120;2023-02-28T06:02:29;-0.20;76.00
210;DHT22;90;48.810;9.120;2023-02-28T06:04:56;-0.20;75.70
210;DHT22;90;48.810;9.120;2023-02-28T06:07:24;-0.20;75.50
210;DHT22;90;48.810;9.120;2023-02-28T06:09:51;-0.20;76.30
210;DHT22;90;48.810;9.120;2023-02-28T06:12:18;-0.20;77.40
210;DHT22;90;48.810;9.120;2023-02-28T06:14:45;-0.10;76.30
210;DHT22;90;48.810;9.120;2023-02-28T06:17:12;-0.10;75.60
210;DHT22;90;48.810;9.120;2023-02-28T06:19:39;-0.20;75.80
210;DHT22;90;48.810;9.120;2023-02-28T06:22:06;-0.10;75.50
210;DHT22;90;48.810;9.120;2023-02-28T06:24:35;-0.20;75.60
210;DHT22;90;48.810;9.120;2023-02-28T06:27:02;-0.20;76.00
210;DHT22;90;48.810;9.120;2023-02-28T06:29:30;-0.20;76.00
210;DHT22;90;48.810;9.120;2023-02-28T06:31:58;-0.10;75.70
210;DHT22;90;48.810;9.120;2023-02-28T06:34:25;0.00;75.40
210;DHT22;90;48.810;9.120;2023-02-28T06:36:52;-0.10;75.20
210;DHT22;90;48.810;9.120;2023-02-28T06:39:20;-0.10;75.30
210;DHT22;90;48.810;9.120;2023-02-28T06:41:48;-0.10;75.50
210;DHT22;90;48.810;9.120;2023-02-28T06:44:18;0.10;78.00
210;DHT22;90;48.810;9.120;2023-02-28T06:46:45;3.30;96.80
210;DHT22;90;48.810;9.120;2023-02-28T06:49:12;3.20;96.80
210;DHT22;90;48.810;9.120;2023-02-28T06:51:42;2.70;92.20
210;DHT22;90;48.810;9.120;2023-02-28T06:54:10;2.10;80.40
210;DHT22;90;48.810;9.120;2023-02-28T06:56:37;1.70;77.60
210;DHT22;90;48.810;9.120;2023-02-28T06:59:06;1.40;76.80
210;DHT22;90;48.810;9.120;2023-02-28T07:01:33;1.10;73.40
210;DHT22;90;48.810;9.120;2023-02-28T07:04:00;0.90;73.10
210;DHT22;90;48.810;9.120;2023-02-28T07:06:27;0.80;73.40
210;DHT22;90;48.810;9.120;2023-02-28T07:08:55;0.60;73.90
210;DHT22;90;48.810;9.120;2023-02-28T07:11:26;0.40;74.20
210;DHT22;90;48.810;9.120;2023-02-28T07:13:54;0.40;74.30
210;DHT22;90;48.810;9.120;2023-02-28T07:16:23;0.40;74.40
210;DHT22;90;48.810;9.120;2023-02-28T07:18:52;0.40;74.30
210;DHT22;90;48.810;9.120;2023-02-28T07:21:20;0.40;74.20
210;DHT22;90;48.810;9.120;2023-02-28T07:23:47;0.30;74.10
210;DHT22;90;48.810;9.120;2023-02-28T07:26:16;0.30;74.40
210;DHT22;90;48.810;9.120;2023-02-28T07:28:43;0.30;74.30
210;DHT22;90;48.810;9.120;2023-02-28T07:31:12;0.30;74.10
210;DHT22;90;48.810;9.120;2023-02-28T07:33:42;0.30;74.10
210;DHT22;90;48.810;9.120;2023-02-28T07:36:11;0.30;73.80
210;DHT22;90;48.810;9.120;2023-02-28T07:38:41;0.30;74.10
210;DHT22;90;48.810;9.120;2023-02-28T07:41:09;0.30;74.20
210;DHT22;90;48.810;9.120;2023-02-28T07:43:36;0.30;74.20
210;DHT22;90;48.810;9.120;2023-02-28T07:46:06;0.30;74.30
210;DHT22;90;48.810;9.120;2023-02-28T07:48:33;0.30;74.30
210;DHT22;90;48.810;9.120;2023-02-28T07:51:03;0.30;74.20
210;DHT22;90;48.810;9.120;2023-02-28T07:53:30;0.30;73.90
210;DHT22;90;48.810;9.120;2023-02-28T07:56:01;0.40;73.60
210;DHT22;90;48.810;9.120;2023-02-28T07:58:29;0.30;74.00
210;DHT22;90;48.810;9.120;2023-02-28T08:00:57;0.30;74.10
210;DHT22;90;48.810;9.120;2023-02-28T08:03:34;0.20;74.00
210;DHT22;90;48.810;9.120;2023-02-28T08:06:04;0.20;74.60
210;DHT22;90;48.810;9.120;2023-02-28T08:08:32;0.20;74.40
210;DHT22;90;48.810;9.120;2023-02-28T08:11:11;0.20;74.70
210;DHT22;90;48.810;9.120;2023-02-28T08:13:46;0.20;74.50
210;DHT22;90;48.810;9.120;2023-02-28T08:16:14;0.20;74.20
210;DHT22;90;48.810;9.120;2023-02-28T08:18:43;0.20;74.50
210;DHT22;90;48.810;9.120;2023-02-28T08:21:11;0.20;74.50
210;DHT22;90;48.810;9.120;2023-02-28T08:23:38;0.30;74.30
210;DHT22;90;48.810;9.120;2023-02-28T08:26:06;0.40;74.30
210;DHT22;90;48.810;9.120;2023-02-28T08:28:33;0.40;73.90
210;DHT22;90;48.810;9.120;2023-02-28T08:31:00;0.50;73.80
210;DHT22;90;48.810;9.120;2023-02-28T08:33:27;0.50;73.50
210;DHT22;90;48.810;9.120;2023-02-28T08:35:55;0.60;73.00
210;DHT22;90;48.810;9.120;2023-02-28T08:38:23;0.60;73.40
210;DHT22;90;48.810;9.120;2023-02-28T08:40:57;0.60;73.20
210;DHT22;90;48.810;9.120;2023-02-28T08:43:24;0.60;73.40
210;DHT22;90;48.810;9.120;2023-02-28T08:45:51;0.70;73.00
210;DHT22;90;48.810;9.120;2023-02-28T08:48:18;0.70;72.80
210;DHT22;90;48.810;9.120;2023-02-28T08:50:54;0.70;72.50
210;DHT22;90;48.810;9.120;2023-02-28T08:53:23;0.70;72.80
210;DHT22;90;48.810;9.120;2023-02-28T08:55:56;0.70;72.70
210;DHT22;90;48.810;9.120;2023-02-28T08:58:23;0.70;72.90
210;DHT22;90;48.810;9.120;2023-02-28T09:00:51;1.20;77.40
210;DHT22;90;48.810;9.120;2023-02-28T09:03:18;1.20;71.30
210;DHT22;90;48.810;9.120;2023-02-28T09:05:53;1.10;70.90
210;DHT22;90;48.810;9.120;2023-02-28T09:08:20;1.10;71.00
210;DHT22;90;48.810;9.120;2023-02-28T09:10:49;1.10;71.10
210;DHT22;90;48.810;9.120;2023-02-28T09:13:16;1.20;71.00
210;DHT22;90;48.810;9.120;2023-02-28T09:15:43;1.20;70.60
210;DHT22;90;48.810;9.120;2023-02-28T09:18:10;1.10;71.00
210;DHT22;90;48.810;9.120;2023-02-28T09:20:38;1.20;71.20
210;DHT22;90;48.810;9.120;2023-02-28T09:23:05;1.10;71.30
210;DHT22;90;48.810;9.120;2023-02-28T09:25:33;1.10;70.90
210;DHT22;90;48.810;9.120;2023-02-28T09:28:01;1.00;70.60
210;DHT22;90;48.810;9.120;2023-02-28T09:30:28;1.10;70.30
210;DHT22;90;48.810;9.120;2023-02-28T09:32:56;1.00;69.60
210;DHT22;90;48.810;9.120;2023-02-28T09:35:23;1.10;69.50
210;DHT22;90;48.810;9.120;2023-02-28T09:37:52;1.20;69.30
210;DHT22;90;48.810;9.120;2023-02-28T09:40:36;1.20;69.60
210;DHT22;90;48.810;9.120;2023-02-28T09:43:05;1.30;70.00
210;DHT22;90;48.810;9.120;2023-02-28T09:45:36;1.30;70.00
210;DHT22;90;48.810;9.120;2023-02-28T09:48:06;1.20;69.90
210;DHT22;90;48.810;9.120;2023-02-28T09:50:38;1.30;69.80
210;DHT22;90;48.810;9.120;2023-02-28T09:53:15;1.30;69.00
210;DHT22;90;48.810;9.120;2023-02-28T09:55:49;1.30;68.80
210;DHT22;90;48.810;9.120;2023-02-28T09:58:26;1.40;68.00
210;DHT22;90;48.810;9.120;2023-02-28T10:00:58;1.50;67.90
210;DHT22;90;48.810;9.120;2023-02-28T10:03:30;1.60;67.40
210;DHT22;90;48.810;9.120;2023-02-28T10:06:04;1.70;66.60
210;DHT22;90;48.810;9.120;2023-02-28T10:08:36;1.70;66.80
210;DHT22;90;48.810;9.120;2023-02-28T10:11:08;1.60;66.60
210;DHT22;90;48.810;9.120;2023-02-28T10:13:47;1.70;66.80
210;DHT22;90;48.810;9.120;2023-02-28T10:16:22;1.70;67.00
210;DHT22;90;48.810;9.120;2023-02-28T10:18:54;1.60;66.80
210;DHT22;90;48.810;9.120;2023-02-28T10:21:26;1.70;66.80
210;DHT22;90;48.810;9.120;2023-02-28T10:24:02;1.70;66.40
210;DHT22;90;48.810;9.120;2023-02-28T10:26:31;1.80;66.40
210;DHT22;90;48.810;9.120;2023-02-28T10:29:01;1.80;66.50
210;DHT22;90;48.810;9.120;2023-02-28T10:31:28;1.90;66.30
210;DHT22;90;48.810;9.120;2023-02-28T10:33:55;2.00;65.60
210;DHT22;90;48.810;9.120;2023-02-28T10:36:22;2.00;65.50
210;DHT22;90;48.810;9.120;2023-02-28T10:38:50;2.00;65.60
210;DHT22;90;48.810;9.120;2023-02-28T10:41:27;2.20;65.40
210;DHT22;90;48.810;9.120;2023-02-28T10:44:15;2.20;65.60
210;DHT22;90;48.810;9.120;2023-02-28T10:46:44;2.30;65.30
210;DHT22;90;48.810;9.120;2023-02-28T10:49:14;2.40;65.00
210;DHT22;90;48.810;9.120;2023-02-28T10:51:43;2.50;64.30
210;DHT22;90;48.810;9.120;2023-02-28T10:54:19;2.50;64.10
210;DHT22;90;48.810;9.120;2023-02-28T10:57:05;2.50;64.20
210;DHT22;90;48.810;9.120;2023-02-28T10:59:35;2.60;64.50
210;DHT22;90;48.810;9.120;2023-02-28T11:02:30;2.90;63.30
210;DHT22;90;48.810;9.120;2023-02-28T11:04:57;3.00;63.30
210;DHT22;90;48.810;9.120;2023-02-28T11:07:27;3.10;62.90
210;DHT22;90;48.810;9.120;2023-02-28T11:09:55;3.20;62.20
210;DHT22;90;48.810;9.120;2023-02-28T11:12:26;3.20;61.70
210;DHT22;90;48.810;9.120;2023-02-28T11:14:59;3.30;61.70
210;DHT22;90;48.810;9.120;2023-02-28T11:17:28;3.40;62.50
210;DHT22;90;48.810;9.120;2023-02-28T11:19:58;3.40;60.90
210;DHT22;90;48.810;9.120;2023-02-28T11:22:31;3.40;61.30
210;DHT22;90;48.810;9.120;2023-02-28T11:25:01;3.30;61.50
210;DHT22;90;48.810;9.120;2023-02-28T11:27:46;3.40;60.90
210;DHT22;90;48.810;9.120;2023-02-28T11:30:40;3.60;61.10
210;DHT22;90;48.810;9.120;2023-02-28T11:33:31;3.60;60.60
210;DHT22;90;48.810;9.120;2023-02-28T11:36:02;3.60;60.70
210;DHT22;90;48.810;9.120;2023-02-28T11:38:38;3.70;60.60
210;DHT22;90;48.810;9.120;2023-02-28T11:41:22;3.80;60.80
210;DHT22;90;48.810;9.120;2023-02-28T11:44:03;4.00;60.10
210;DHT22;90;48.810;9.120;2023-02-28T11:46:37;4.10;60.50
210;DHT22;90;48.810;9.120;2023-02-28T11:49:16;4.40;59.40
210;DHT22;90;48.810;9.120;2023-02-28T11:51:51;4.70;59.80
210;DHT22;90;48.810;9.120;2023-02-28T11:54:30;4.90;58.40
210;DHT22;90;48.810;9.120;2023-02-28T11:57:15;5.00;57.70
210;DHT22;90;48.810;9.120;2023-02-28T11:59:55;5.00;57.40
210;DHT22;90;48.810;9.120;2023-02-28T12:02:30;5.20;56.30
210;DHT22;90;48.810;9.120;2023-02-28T12:05:15;5.30;57.20
210;DHT22;90;48.810;9.120;2023-02-28T12:07:51;5.40;57.10
210;DHT22;90;48.810;9.120;2023-02-28T12:10:24;5.50;56.10
210;DHT22;90;48.810;9.120;2023-02-28T12:13:10;5.50;56.40
210;DHT22;90;48.810;9.120;2023-02-28T12:16:10;5.50;55.80
210;DHT22;90;48.810;9.120;2023-02-28T12:18:55;5.70;56.10
210;DHT22;90;48.810;9.120;2023-02-28T12:21:30;5.80;55.40
210;DHT22;90;48.810;9.120;2023-02-28T12:24:14;5.90;55.20
210;DHT22;90;48.810;9.120;2023-02-28T12:26:45;5.80;55.10
210;DHT22;90;48.810;9.120;2023-02-28T12:29:17;5.80;53.90
210;DHT22;90;48.810;9.120;2023-02-28T12:31:48;5.80;54.50
210;DHT22;90;48.810;9.120;2023-02-28T12:34:20;6.00;55.20
210;DHT22;90;48.810;9.120;2023-02-28T12:36:51;6.00;54.20
210;DHT22;90;48.810;9.120;2023-02-28T12:39:23;5.90;55.00
210;DHT22;90;48.810;9.120;2023-02-28T12:41:54;6.00;54.20
210;DHT22;90;48.810;9.120;2023-02-28T12:44:28;6.10;54.50
210;DHT22;90;48.810;9.120;2023-02-28T12:47:04;6.20;54.40
210;DHT22;90;48.810;9.120;2023-02-28T12:49:38;6.40;54.10
210;DHT22;90;48.810;9.120;2023-02-28T12:52:07;6.40;53.40
210;DHT22;90;48.810;9.120;2023-02-28T12:54:44;6.30;53.50
210;DHT22;90;48.810;9.120;2023-02-28T12:57:18;6.40;52.90
210;DHT22;90;48.810;9.120;2023-02-28T12:59:52;6.50;53.10
210;DHT22;90;48.810;9.120;2023-02-28T13:02:41;6.60;52.30
210;DHT22;90;48.810;9.120;2023-02-28T13:05:29;6.40;51.80
210;DHT22;90;48.810;9.120;2023-02-28T13:08:21;6.50;52.50
210;DHT22;90;48.810;9.120;2023-02-28T13:10:51;6.20;52.60
210;DHT22;90;48.810;9.120;2023-02-28T13:13:22;6.10;52.50
210;DHT22;90;48.810;9.120;2023-02-28T13:16:02;6.00;52.50
210;DHT22;90;48.810;9.120;2023-02-28T13:18:35;5.60;53.70
210;DHT22;90;48.810;9.120;2023-02-28T13:21:07;5.60;54.10
210;DHT22;90;48.810;9.120;2023-02-28T13:23:41;5.70;54.00
210;DHT22;90;48.810;9.120;2023-02-28T13:29:34;6.30;53.40
210;DHT22;90;48.810;9.120;2023-02-28T13:32:29;6.50;53.30
210;DHT22;90;48.810;9.120;2023-02-28T13:35:38;6.80;51.90
210;DHT22;90;48.810;9.120;2023-02-28T13:38:17;6.90;51.40
210;DHT22;90;48.810;9.120;2023-02-28T13:40:44;6.90;51.20
210;DHT22;90;48.810;9.120;2023-02-28T13:43:12;7.10;50.60
210;DHT22;90;48.810;9.120;2023-02-28T13:46:09;7.20;50.40
210;DHT22;90;48.810;9.120;2023-02-28T13:48:38;7.10;50.20
210;DHT22;90;48.810;9.120;2023-02-28T13:54:17;6.70;51.60
210;DHT22;90;48.810;9.120;2023-02-28T13:56:53;6.80;50.70
210;DHT22;90;48.810;9.120;2023-02-28T13:59:30;6.90;50.40
210;DHT22;90;48.810;9.120;2023-02-28T14:02:22;6.80;51.10
210;DHT22;90;48.810;9.120;2023-02-28T14:05:01;6.80;51.10
210;DHT22;90;48.810;9.120;2023-02-28T14:07:32;6.70;51.20
210;DHT22;90;48.810;9.120;2023-02-28T14:10:07;6.70;50.50
210;DHT22;90;48.810;9.120;2023-02-28T14:13:00;6.80;51.00
210;DHT22;90;48.810;9.120;2023-02-28T14:15:43;6.90;50.90
210;DHT22;90;48.810;9.120;2023-02-28T14:18:23;7.30;50.20
210;DHT22;90;48.810;9.120;2023-02-28T14:20:57;7.20;49.10
210;DHT22;90;48.810;9.120;2023-02-28T14:23:49;7.20;49.50
210;DHT22;90;48.810;9.120;2023-02-28T14:26:31;7.20;50.00
210;DHT22;90;48.810;9.120;2023-02-28T14:29:16;7.40;49.70
210;DHT22;90;48.810;9.120;2023-02-28T14:31:51;7.50;49.50
210;DHT22;90;48.810;9.120;2023-02-28T14:34:33;7.50;49.00
210;DHT22;90;48.810;9.120;2023-02-28T14:37:02;7.60;49.40
210;DHT22;90;48.810;9.120;2023-02-28T14:39:31;7.80;48.80
210;DHT22;90;48.810;9.120;2023-02-28T14:42:00;8.00;49.00
210;DHT22;90;48.810;9.120;2023-02-28T14:44:31;8.00;48.50
210;DHT22;90;48.810;9.120;2023-02-28T14:47:00;8.10;48.00
210;DHT22;90;48.810;9.120;2023-02-28T14:49:34;8.10;48.20
210;DHT22;90;48.810;9.120;2023-02-28T14:52:05;8.00;48.10
210;DHT22;90;48.810;9.120;2023-02-28T14:54:35;7.90;48.60
210;DHT22;90;48.810;9.120;2023-02-28T14:57:04;7.80;47.80
210;DHT22;90;48.810;9.120;2023-02-28T14:59:35;7.60;48.30
210;DHT22;90;48.810;9.120;2023-02-28T15:02:20;7.60;48.80
210;DHT22;90;48.810;9.120;2023-02-28T15:04:56;7.60;48.20
210;DHT22;90;48.810;9.120;2023-02-28T15:07:23;7.50;48.80
210;DHT22;90;48.810;9.120;2023-02-28T15:10:11;7.70;49.10
210;DHT22;90;48.810;9.120;2023-02-28T15:12:49;7.80;49.10
210;DHT22;90;48.810;9.120;2023-02-28T15:15:21;8.10;63.40
210;DHT22;90;48.810;9.120;2023-02-28T15:17:51;8.30;49.10
210;DHT22;90;48.810;9.120;2023-02-28T15:21:06;8.20;47.90
210;DHT22;90;48.810;9.120;2023-02-28T15:23:51;8.10;48.10
210;DHT22;90;48.810;9.120;2023-02-28T15:26:42;7.90;48.10
210;DHT22;90;48.810;9.120;2023-02-28T15:29:29;7.90;48.60
210;DHT22;90;48.810;9.120;2023-02-28T15:32:18;7.80;49.00
210;DHT22;90;48.810;9.120;2023-02-28T15:35:36;7.80;48.90
210;DHT22;90;48.810;9.120;2023-02-28T15:38:13;7.80;49.20
210;DHT22;90;48.810;9.120;2023-02-28T15:40:43;8.10;62.70
210;DHT22;90;48.810;9.120;2023-02-28T15:43:44;7.90;48.70
210;DHT22;90;48.810;9.120;2023-02-28T15:57:06;7.50;50.30
210;DHT22;90;48.810;9.120;2023-02-28T16:00:16;7.30;50.00
210;DHT22;90;48.810;9.120;2023-02-28T16:24:04;5.70;54.60
210;DHT22;90;48.810;9.120;2023-02-28T16:26:31;5.60;54.70
210;DHT22;90;48.810;9.120;2023-02-28T16:28:59;5.60;55.10
210;DHT22;90;48.810;9.120;2023-02-28T16:31:31;5.50;55.00
210;DHT22;90;48.810;9.120;2023-02-28T16:34:01;5.40;57.70
210;DHT22;90;48.810;9.120;2023-02-28T16:36:29;5.50;57.80
210;DHT22;90;48.810;9.120;2023-02-28T16:38:57;5.50;58.00
210;DHT22;90;48.810;9.120;2023-02-28T16:41:27;5.50;56.30
210;DHT22;90;48.810;9.120;2023-02-28T16:43:56;5.30;56.10
210;DHT22;90;48.810;9.120;2023-02-28T16:46:29;5.30;56.30
210;DHT22;90;48.810;9.120;2023-02-28T16:49:00;5.20;56.60
210;DHT22;90;48.810;9.120;2023-02-28T16:51:28;5.10;56.70
210;DHT22;90;48.810;9.120;2023-02-28T16:53:55;5.10;56.90
210;DHT22;90;48.810;9.120;2023-02-28T16:56:27;5.10;57.10
210;DHT22;90;48.810;9.120;2023-02-28T16:58:57;5.00;57.10
210;DHT22;90;48.810;9.120;2023-02-28T17:01:28;4.90;57.40
210;DHT22;90;48.810;9.120;2023-02-28T17:04:19;4.80;57.70
210;DHT22;90;48.810;9.120;2023-02-28T17:13:52;4.70;58.10
210;DHT22;90;48.810;9.120;2023-02-28T17:16:24;4.70;57.90
210;DHT22;90;48.810;9.120;2023-02-28T17:18:54;4.60;58.20
210;DHT22;90;48.810;9.120;2023-02-28T17:21:22;4.50;58.80
210;DHT22;90;48.810;9.120;2023-02-28T17:23:49;4.40;59.30
210;DHT22;90;48.810;9.120;2023-02-28T17:26:19;4.40;59.60
210;DHT22;90;48.810;9.120;2023-02-28T17:28:49;4.30;59.90
210;DHT22;90;48.810;9.120;2023-02-28T17:31:18;4.20;60.10
210;DHT22;90;48.810;9.120;2023-02-28T17:33:45;4.20;60.20
210;DHT22;90;48.810;9.120;2023-02-28T17:36:22;4.20;60.20
210;DHT22;90;48.810;9.120;2023-02-28T17:38:50;4.10;60.30
210;DHT22;90;48.810;9.120;2023-02-28T17:41:18;4.10;60.40
210;DHT22;90;48.810;9.120;2023-02-28T17:43:45;4.00;60.70
210;DHT22;90;48.810;9.120;2023-02-28T17:46:18;4.00;60.70
210;DHT22;90;48.810;9.120;2023-02-28T17:49:25;4.00;60.70
210;DHT22;90;48.810;9.120;2023-02-28T17:52:16;4.00;60.90
210;DHT22;90;48.810;9.120;2023-02-28T17:54:44;3.90;60.90
210;DHT22;90;48.810;9.120;2023-02-28T17:57:15;3.80;61.10
210;DHT22;90;48.810;9.120;2023-02-28T17:59:45;3.80;61.30
210;DHT22;90;48.810;9.120;2023-02-28T18:02:36;3.80;61.50
210;DHT22;90;48.810;9.120;2023-02-28T18:05:31;3.80;61.60
210;DHT22;90;48.810;9.120;2023-02-28T18:07:59;3.80;61.70
210;DHT22;90;48.810;9.120;2023-02-28T18:10:34;3.80;61.50
210;DHT22;90;48.810;9.120;2023-02-28T18:16:24;3.70;61.50
210;DHT22;90;48.810;9.120;2023-02-28T18:18:58;3.70;61.40
210;DHT22;90;48.810;9.120;2023-02-28T18:21:32;3.70;61.40
210;DHT22;90;48.810;9.120;2023-02-28T18:31:27;3.70;61.60
210;DHT22;90;48.810;9.120;2023-02-28T19:13:19;3.20;63.00
210;DHT22;90;48.810;9.120;2023-02-28T19:16:00;3.20;63.30
210;DHT22;90;48.810;9.120;2023-02-28T19:18:31;3.20;63.40
210;DHT22;90;48.810;9.120;2023-02-28T19:20:58;3.00;63.90
210;DHT22;90;48.810;9.120;2023-02-28T19:23:35;3.10;63.80